This is the latest recevied weather packets stored in our database for station/object dl1wer-13. If no packets are shown the sender has not sent any weather packets the latest 1 day(s).
| Time | Temp. | Humidity | Pressure | Rain* | Wind** | Luminosity | Snow |
|---|---|---|---|---|---|---|---|
| 1778035223 | 10.56° C | 90% | 1034.5 hPa | 0 mm | - | - | - |
| 1778034022 | 10.56° C | 92% | 1034.3 hPa | 0 mm | - | - | - |
| 1778033423 | 10.56° C | 94% | 1034.5 hPa | 0 mm | - | - | - |
| 1778032823 | 10° C | 95% | 1034.9 hPa | 0 mm | - | - | - |
| 1778032222 | 10° C | 96% | 1034.6 hPa | 0 mm | - | - | - |
| 1778031622 | 9.44° C | 96% | 1034.7 hPa | 0 mm | - | - | - |
| 1778031023 | 9.44° C | 96% | 1034.4 hPa | 0 mm | - | - | - |
| 1778030423 | 9.44° C | 96% | 1034.6 hPa | 0 mm | - | - | - |
| 1778029223 | 10° C | 95% | 1035 hPa | 0 mm | - | - | - |
| 1778028622 | 10° C | 95% | 1034.8 hPa | 0 mm | - | - | - |
| 1778027423 | 9.44° C | 94% | 1034.9 hPa | 0 mm | - | - | - |
| 1778026823 | 10° C | 95% | 1035 hPa | 0 mm | - | - | - |
| 1778026223 | 10° C | 95% | 1035.1 hPa | 0 mm | - | - | - |
| 1778023222 | 10.56° C | 93% | 1035.4 hPa | 0 mm | - | - | - |
| 1778022023 | 10.56° C | 93% | 1035.3 hPa | 0 mm | - | - | - |
| 1778017823 | 11.67° C | 92% | 1035.3 hPa | 0 mm | - | - | - |
| 1778016023 | 11.67° C | 90% | 1035.2 hPa | 0.25 mm | - | - | - |
| 1778013623 | 12.22° C | 88% | 1035.5 hPa | 0.51 mm | - | - | - |
| 1778011823 | 13.89° C | 75% | 1035.6 hPa | 0 mm | - | - | - |
| 1778010622 | 14.44° C | 70% | 1035.4 hPa | 0 mm | - | - | - |
* Rain latest hour (hover to see other rain measurements)
** Current wind speed in m/s (hover to see current wind gust speed)